sensor_id;sensor_type;location;lat;lon;timestamp;temperature;humidity
65291;SHT30;51893;59.754;10.110;2022-10-17T00:01:14;5.88;83.42
65291;SHT30;51893;59.754;10.110;2022-10-17T00:03:42;5.86;83.20
65291;SHT30;51893;59.754;10.110;2022-10-17T00:06:12;5.72;83.01
65291;SHT30;51893;59.754;10.110;2022-10-17T00:08:42;5.66;83.25
65291;SHT30;51893;59.754;10.110;2022-10-17T00:11:18;5.71;83.13
65291;SHT30;51893;59.754;10.110;2022-10-17T00:13:50;5.79;83.16
65291;SHT30;51893;59.754;10.110;2022-10-17T00:16:26;5.76;82.97
65291;SHT30;51893;59.754;10.110;2022-10-17T00:19:03;5.59;82.95
65291;SHT30;51893;59.754;10.110;2022-10-17T00:21:34;5.56;83.30
65291;SHT30;51893;59.754;10.110;2022-10-17T00:24:04;5.47;83.68
65291;SHT30;51893;59.754;10.110;2022-10-17T00:26:33;5.49;83.99
65291;SHT30;51893;59.754;10.110;2022-10-17T00:29:02;5.51;84.16
65291;SHT30;51893;59.754;10.110;2022-10-17T00:31:31;5.46;84.24
65291;SHT30;51893;59.754;10.110;2022-10-17T00:33:59;5.41;84.21
65291;SHT30;51893;59.754;10.110;2022-10-17T00:36:27;5.32;83.97
65291;SHT30;51893;59.754;10.110;2022-10-17T00:38:56;5.30;83.90
65291;SHT30;51893;59.754;10.110;2022-10-17T00:41:27;5.31;84.07
65291;SHT30;51893;59.754;10.110;2022-10-17T00:44:04;5.28;84.49
65291;SHT30;51893;59.754;10.110;2022-10-17T00:46:57;5.30;84.60
65291;SHT30;51893;59.754;10.110;2022-10-17T00:49:32;5.34;84.24
65291;SHT30;51893;59.754;10.110;2022-10-17T00:52:05;5.38;84.12
65291;SHT30;51893;59.754;10.110;2022-10-17T00:55:16;5.40;83.73
65291;SHT30;51893;59.754;10.110;2022-10-17T00:57:51;5.27;83.37
65291;SHT30;51893;59.754;10.110;2022-10-17T01:00:20;5.14;83.54
65291;SHT30;51893;59.754;10.110;2022-10-17T01:02:51;5.11;83.89
65291;SHT30;51893;59.754;10.110;2022-10-17T01:05:20;5.17;83.72
65291;SHT30;51893;59.754;10.110;2022-10-17T01:07:51;5.14;83.37
65291;SHT30;51893;59.754;10.110;2022-10-17T01:10:21;5.10;83.20
65291;SHT30;51893;59.754;10.110;2022-10-17T01:13:12;4.88;82.78
65291;SHT30;51893;59.754;10.110;2022-10-17T01:16:10;4.76;83.16
65291;SHT30;51893;59.754;10.110;2022-10-17T01:19:17;4.69;83.76
65291;SHT30;51893;59.754;10.110;2022-10-17T01:22:25;4.76;84.04
65291;SHT30;51893;59.754;10.110;2022-10-17T01:31:16;4.63;83.39
65291;SHT30;51893;59.754;10.110;2022-10-17T01:34:45;4.48;83.47
65291;SHT30;51893;59.754;10.110;2022-10-17T01:37:47;4.40;83.86
65291;SHT30;51893;59.754;10.110;2022-10-17T01:40:34;4.40;83.99
65291;SHT30;51893;59.754;10.110;2022-10-17T01:43:20;4.49;84.12
65291;SHT30;51893;59.754;10.110;2022-10-17T01:45:53;4.56;83.95
65291;SHT30;51893;59.754;10.110;2022-10-17T01:48:31;4.62;83.73
65291;SHT30;51893;59.754;10.110;2022-10-17T01:51:08;4.55;83.72
65291;SHT30;51893;59.754;10.110;2022-10-17T01:53:56;4.46;84.31
65291;SHT30;51893;59.754;10.110;2022-10-17T01:56:33;4.42;84.85
65291;SHT30;51893;59.754;10.110;2022-10-17T01:59:52;4.43;84.89
65291;SHT30;51893;59.754;10.110;2022-10-17T02:02:08;4.38;84.37
65291;SHT30;51893;59.754;10.110;2022-10-17T02:04:40;4.44;84.21
65291;SHT30;51893;59.754;10.110;2022-10-17T02:07:10;4.45;83.86
65291;SHT30;51893;59.754;10.110;2022-10-17T02:09:39;4.43;83.72
65291;SHT30;51893;59.754;10.110;2022-10-17T02:21:13;4.42;83.64
65291;SHT30;51893;59.754;10.110;2022-10-17T02:23:56;4.29;83.36
65291;SHT30;51893;59.754;10.110;2022-10-17T02:26:52;4.13;83.14
65291;SHT30;51893;59.754;10.110;2022-10-17T02:29:35;3.99;83.35
65291;SHT30;51893;59.754;10.110;2022-10-17T02:35:23;4.06;83.49
65291;SHT30;51893;59.754;10.110;2022-10-17T02:37:58;4.07;83.68
65291;SHT30;51893;59.754;10.110;2022-10-17T02:40:30;4.11;83.59
65291;SHT30;51893;59.754;10.110;2022-10-17T02:43:01;3.99;83.59
65291;SHT30;51893;59.754;10.110;2022-10-17T02:45:30;3.87;83.86
65291;SHT30;51893;59.754;10.110;2022-10-17T02:48:03;3.92;84.32
65291;SHT30;51893;59.754;10.110;2022-10-17T02:51:04;4.04;84.61
65291;SHT30;51893;59.754;10.110;2022-10-17T02:54:03;4.14;84.35
65291;SHT30;51893;59.754;10.110;2022-10-17T02:56:38;4.19;84.49
65291;SHT30;51893;59.754;10.110;2022-10-17T02:59:13;4.17;84.35
65291;SHT30;51893;59.754;10.110;2022-10-17T03:01:47;4.14;84.46
65291;SHT30;51893;59.754;10.110;2022-10-17T03:04:17;4.13;84.13
65291;SHT30;51893;59.754;10.110;2022-10-17T03:06:47;4.10;84.15
65291;SHT30;51893;59.754;10.110;2022-10-17T03:09:16;4.11;84.30
65291;SHT30;51893;59.754;10.110;2022-10-17T03:11:45;4.14;84.26
65291;SHT30;51893;59.754;10.110;2022-10-17T03:14:16;4.09;84.21
65291;SHT30;51893;59.754;10.110;2022-10-17T03:16:43;4.12;84.37
65291;SHT30;51893;59.754;10.110;2022-10-17T03:19:11;4.09;84.05
65291;SHT30;51893;59.754;10.110;2022-10-17T03:21:39;4.02;83.94
65291;SHT30;51893;59.754;10.110;2022-10-17T03:24:09;3.87;83.76
65291;SHT30;51893;59.754;10.110;2022-10-17T03:26:37;3.90;83.99
65291;SHT30;51893;59.754;10.110;2022-10-17T03:29:04;3.86;84.20
65291;SHT30;51893;59.754;10.110;2022-10-17T03:31:32;3.82;84.44
65291;SHT30;51893;59.754;10.110;2022-10-17T03:34:00;3.82;84.60
65291;SHT30;51893;59.754;10.110;2022-10-17T03:36:29;3.90;84.78
65291;SHT30;51893;59.754;10.110;2022-10-17T03:38:57;3.95;84.59
65291;SHT30;51893;59.754;10.110;2022-10-17T03:41:25;3.92;84.28
65291;SHT30;51893;59.754;10.110;2022-10-17T03:43:54;3.87;84.37
65291;SHT30;51893;59.754;10.110;2022-10-17T03:46:22;3.84;85.01
65291;SHT30;51893;59.754;10.110;2022-10-17T03:48:49;3.84;85.18
65291;SHT30;51893;59.754;10.110;2022-10-17T03:51:19;3.79;85.68
65291;SHT30;51893;59.754;10.110;2022-10-17T03:53:48;3.85;85.65
65291;SHT30;51893;59.754;10.110;2022-10-17T03:56:20;3.88;85.12
65291;SHT30;51893;59.754;10.110;2022-10-17T03:58:50;3.94;84.94
65291;SHT30;51893;59.754;10.110;2022-10-17T04:01:20;3.92;84.67
65291;SHT30;51893;59.754;10.110;2022-10-17T04:03:49;3.70;84.80
65291;SHT30;51893;59.754;10.110;2022-10-17T04:06:22;3.62;85.37
65291;SHT30;51893;59.754;10.110;2022-10-17T04:08:51;3.65;85.69
65291;SHT30;51893;59.754;10.110;2022-10-17T04:11:19;3.71;85.84
65291;SHT30;51893;59.754;10.110;2022-10-17T04:13:53;3.71;85.80
65291;SHT30;51893;59.754;10.110;2022-10-17T04:16:25;3.71;86.00
65291;SHT30;51893;59.754;10.110;2022-10-17T04:18:57;3.68;86.12
65291;SHT30;51893;59.754;10.110;2022-10-17T04:21:27;3.74;86.56
65291;SHT30;51893;59.754;10.110;2022-10-17T04:23:58;3.69;86.26
65291;SHT30;51893;59.754;10.110;2022-10-17T04:26:28;3.65;86.10
65291;SHT30;51893;59.754;10.110;2022-10-17T04:28:56;3.68;86.09
65291;SHT30;51893;59.754;10.110;2022-10-17T04:31:23;3.76;86.01
65291;SHT30;51893;59.754;10.110;2022-10-17T04:33:51;3.70;85.66
65291;SHT30;51893;59.754;10.110;2022-10-17T04:36:19;3.62;85.60
65291;SHT30;51893;59.754;10.110;2022-10-17T04:38:47;3.60;85.80
65291;SHT30;51893;59.754;10.110;2022-10-17T04:41:16;3.63;85.89
65291;SHT30;51893;59.754;10.110;2022-10-17T04:43:47;3.65;85.69
65291;SHT30;51893;59.754;10.110;2022-10-17T04:46:18;3.74;85.44
65291;SHT30;51893;59.754;10.110;2022-10-17T04:48:46;3.74;85.20
65291;SHT30;51893;59.754;10.110;2022-10-17T04:51:15;3.75;85.23
65291;SHT30;51893;59.754;10.110;2022-10-17T04:53:50;3.73;85.20
65291;SHT30;51893;59.754;10.110;2022-10-17T04:56:20;3.65;85.47
65291;SHT30;51893;59.754;10.110;2022-10-17T04:58:50;3.63;86.08
65291;SHT30;51893;59.754;10.110;2022-10-17T05:01:19;3.60;86.93
65291;SHT30;51893;59.754;10.110;2022-10-17T05:03:49;3.59;87.50
65291;SHT30;51893;59.754;10.110;2022-10-17T05:06:20;3.64;87.41
65291;SHT30;51893;59.754;10.110;2022-10-17T05:08:52;3.71;87.10
65291;SHT30;51893;59.754;10.110;2022-10-17T05:11:22;3.73;86.82
65291;SHT30;51893;59.754;10.110;2022-10-17T05:14:02;3.68;86.82
65291;SHT30;51893;59.754;10.110;2022-10-17T05:16:52;3.65;86.85
65291;SHT30;51893;59.754;10.110;2022-10-17T05:19:20;3.60;86.97
65291;SHT30;51893;59.754;10.110;2022-10-17T05:21:48;3.63;87.06
65291;SHT30;51893;59.754;10.110;2022-10-17T05:24:17;3.65;86.96
65291;SHT30;51893;59.754;10.110;2022-10-17T05:26:45;3.63;86.77
65291;SHT30;51893;59.754;10.110;2022-10-17T05:29:16;3.65;86.79
65291;SHT30;51893;59.754;10.110;2022-10-17T05:31:44;3.69;86.91
65291;SHT30;51893;59.754;10.110;2022-10-17T05:34:13;3.70;87.01
65291;SHT30;51893;59.754;10.110;2022-10-17T05:36:41;3.66;87.11
65291;SHT30;51893;59.754;10.110;2022-10-17T05:39:11;3.64;87.29
65291;SHT30;51893;59.754;10.110;2022-10-17T05:41:41;3.70;87.49
65291;SHT30;51893;59.754;10.110;2022-10-17T05:44:10;3.79;87.32
65291;SHT30;51893;59.754;10.110;2022-10-17T05:46:39;3.81;87.01
65291;SHT30;51893;59.754;10.110;2022-10-17T05:49:09;3.86;86.84
65291;SHT30;51893;59.754;10.110;2022-10-17T05:51:57;3.96;86.73
65291;SHT30;51893;59.754;10.110;2022-10-17T05:54:25;4.01;86.61
65291;SHT30;51893;59.754;10.110;2022-10-17T05:56:53;4.04;86.74
65291;SHT30;51893;59.754;10.110;2022-10-17T05:59:25;4.03;87.03
65291;SHT30;51893;59.754;10.110;2022-10-17T06:01:54;4.01;87.31
65291;SHT30;51893;59.754;10.110;2022-10-17T06:04:22;4.00;87.50
65291;SHT30;51893;59.754;10.110;2022-10-17T06:06:50;4.04;87.52
65291;SHT30;51893;59.754;10.110;2022-10-17T06:09:18;4.10;87.53
65291;SHT30;51893;59.754;10.110;2022-10-17T06:11:50;4.14;87.55
65291;SHT30;51893;59.754;10.110;2022-10-17T06:14:18;4.22;87.46
65291;SHT30;51893;59.754;10.110;2022-10-17T06:16:46;4.18;87.12
65291;SHT30;51893;59.754;10.110;2022-10-17T06:19:16;4.12;86.83
65291;SHT30;51893;59.754;10.110;2022-10-17T06:21:44;4.06;86.83
65291;SHT30;51893;59.754;10.110;2022-10-17T06:24:12;4.00;87.09
65291;SHT30;51893;59.754;10.110;2022-10-17T06:26:41;4.01;87.28
65291;SHT30;51893;59.754;10.110;2022-10-17T06:29:10;4.08;87.36
65291;SHT30;51893;59.754;10.110;2022-10-17T06:31:39;4.10;87.33
65291;SHT30;51893;59.754;10.110;2022-10-17T06:34:09;4.09;87.39
65291;SHT30;51893;59.754;10.110;2022-10-17T06:36:38;4.11;87.52
65291;SHT30;51893;59.754;10.110;2022-10-17T06:39:07;4.17;87.60
65291;SHT30;51893;59.754;10.110;2022-10-17T06:41:37;4.20;87.65
65291;SHT30;51893;59.754;10.110;2022-10-17T06:44:07;4.23;87.70
65291;SHT30;51893;59.754;10.110;2022-10-17T06:46:38;4.21;87.62
65291;SHT30;51893;59.754;10.110;2022-10-17T06:49:08;4.22;87.60
65291;SHT30;51893;59.754;10.110;2022-10-17T06:51:38;4.25;87.53
65291;SHT30;51893;59.754;10.110;2022-10-17T06:54:06;4.23;87.42
65291;SHT30;51893;59.754;10.110;2022-10-17T06:56:35;4.27;87.56
65291;SHT30;51893;59.754;10.110;2022-10-17T06:59:07;4.31;87.50
65291;SHT30;51893;59.754;10.110;2022-10-17T07:01:38;4.28;87.53
65291;SHT30;51893;59.754;10.110;2022-10-17T07:04:10;4.25;87.74
65291;SHT30;51893;59.754;10.110;2022-10-17T07:06:39;4.36;87.96
65291;SHT30;51893;59.754;10.110;2022-10-17T07:09:07;4.52;87.71
65291;SHT30;51893;59.754;10.110;2022-10-17T07:11:36;4.53;87.50
65291;SHT30;51893;59.754;10.110;2022-10-17T07:14:06;4.58;87.54
65291;SHT30;51893;59.754;10.110;2022-10-17T07:16:36;4.62;87.60
65291;SHT30;51893;59.754;10.110;2022-10-17T07:19:04;4.64;87.58
65291;SHT30;51893;59.754;10.110;2022-10-17T07:21:32;4.63;87.58
65291;SHT30;51893;59.754;10.110;2022-10-17T07:24:06;4.64;87.77
65291;SHT30;51893;59.754;10.110;2022-10-17T07:26:37;4.71;87.95
65291;SHT30;51893;59.754;10.110;2022-10-17T07:29:06;4.84;87.83
65291;SHT30;51893;59.754;10.110;2022-10-17T07:31:34;4.95;87.89
65291;SHT30;51893;59.754;10.110;2022-10-17T07:34:02;5.03;87.72
65291;SHT30;51893;59.754;10.110;2022-10-17T07:36:30;5.05;87.60
65291;SHT30;51893;59.754;10.110;2022-10-17T07:38:58;4.99;87.66
65291;SHT30;51893;59.754;10.110;2022-10-17T07:41:26;4.94;87.82
65291;SHT30;51893;59.754;10.110;2022-10-17T07:43:55;4.99;87.96
65291;SHT30;51893;59.754;10.110;2022-10-17T07:46:25;5.03;88.00
65291;SHT30;51893;59.754;10.110;2022-10-17T07:48:53;5.10;87.98
65291;SHT30;51893;59.754;10.110;2022-10-17T07:51:21;5.17;87.85
65291;SHT30;51893;59.754;10.110;2022-10-17T07:53:49;5.22;87.74
65291;SHT30;51893;59.754;10.110;2022-10-17T07:56:17;5.18;87.60
65291;SHT30;51893;59.754;10.110;2022-10-17T07:58:47;5.12;87.66
65291;SHT30;51893;59.754;10.110;2022-10-17T08:01:16;5.06;87.81
65291;SHT30;51893;59.754;10.110;2022-10-17T08:03:45;5.00;87.95
65291;SHT30;51893;59.754;10.110;2022-10-17T08:06:16;4.99;88.06
65291;SHT30;51893;59.754;10.110;2022-10-17T08:08:45;5.04;88.10
65291;SHT30;51893;59.754;10.110;2022-10-17T08:11:14;5.06;88.11
65291;SHT30;51893;59.754;10.110;2022-10-17T08:13:43;5.08;88.16
65291;SHT30;51893;59.754;10.110;2022-10-17T08:16:12;5.15;88.20
65291;SHT30;51893;59.754;10.110;2022-10-17T08:18:40;5.12;88.18
65291;SHT30;51893;59.754;10.110;2022-10-17T08:21:10;5.12;88.25
65291;SHT30;51893;59.754;10.110;2022-10-17T08:23:40;5.17;88.29
65291;SHT30;51893;59.754;10.110;2022-10-17T08:26:10;5.21;88.23
65291;SHT30;51893;59.754;10.110;2022-10-17T08:28:43;5.21;88.29
65291;SHT30;51893;59.754;10.110;2022-10-17T08:31:14;5.22;88.41
65291;SHT30;51893;59.754;10.110;2022-10-17T08:33:46;5.27;88.46
65291;SHT30;51893;59.754;10.110;2022-10-17T08:36:16;5.27;88.45
65291;SHT30;51893;59.754;10.110;2022-10-17T08:38:47;5.31;88.47
65291;SHT30;51893;59.754;10.110;2022-10-17T08:43:59;5.38;88.41
65291;SHT30;51893;59.754;10.110;2022-10-17T08:46:37;5.48;88.49
65291;SHT30;51893;59.754;10.110;2022-10-17T08:49:10;5.59;88.43
65291;SHT30;51893;59.754;10.110;2022-10-17T08:51:57;5.59;88.44
65291;SHT30;51893;59.754;10.110;2022-10-17T08:54:52;5.60;88.52
65291;SHT30;51893;59.754;10.110;2022-10-17T08:57:20;5.66;88.60
65291;SHT30;51893;59.754;10.110;2022-10-17T08:59:48;5.69;88.44
65291;SHT30;51893;59.754;10.110;2022-10-17T09:17:40;6.09;88.42
65291;SHT30;51893;59.754;10.110;2022-10-17T09:25:42;6.07;88.40
65291;SHT30;51893;59.754;10.110;2022-10-17T09:33:51;6.10;88.50
65291;SHT30;51893;59.754;10.110;2022-10-17T09:36:34;6.16;88.57
65291;SHT30;51893;59.754;10.110;2022-10-17T09:39:18;6.28;88.43
65291;SHT30;51893;59.754;10.110;2022-10-17T09:41:59;6.29;88.32
65291;SHT30;51893;59.754;10.110;2022-10-17T09:44:41;6.29;88.40
65291;SHT30;51893;59.754;10.110;2022-10-17T09:47:25;6.34;88.48
65291;SHT30;51893;59.754;10.110;2022-10-17T09:50:01;6.39;88.39
65291;SHT30;51893;59.754;10.110;2022-10-17T09:52:32;6.43;88.24
65291;SHT30;51893;59.754;10.110;2022-10-17T09:55:24;6.48;88.00
65291;SHT30;51893;59.754;10.110;2022-10-17T09:58:10;6.51;87.73
65291;SHT30;51893;59.754;10.110;2022-10-17T10:00:43;6.49;87.66
65291;SHT30;51893;59.754;10.110;2022-10-17T10:03:15;6.48;87.70
65291;SHT30;51893;59.754;10.110;2022-10-17T10:08:53;6.47;87.78
65291;SHT30;51893;59.754;10.110;2022-10-17T10:11:43;6.51;87.89
65291;SHT30;51893;59.754;10.110;2022-10-17T10:14:29;6.59;87.76
65291;SHT30;51893;59.754;10.110;2022-10-17T10:17:03;6.54;87.62
65291;SHT30;51893;59.754;10.110;2022-10-17T10:20:01;6.62;87.64
65291;SHT30;51893;59.754;10.110;2022-10-17T10:25:50;6.56;87.64
65291;SHT30;51893;59.754;10.110;2022-10-17T10:28:27;6.55;87.62
65291;SHT30;51893;59.754;10.110;2022-10-17T10:31:05;6.54;87.68
65291;SHT30;51893;59.754;10.110;2022-10-17T10:33:39;6.51;87.82
65291;SHT30;51893;59.754;10.110;2022-10-17T10:36:15;6.52;87.88
65291;SHT30;51893;59.754;10.110;2022-10-17T10:38:51;6.53;87.80
65291;SHT30;51893;59.754;10.110;2022-10-17T10:41:30;6.49;87.80
65291;SHT30;51893;59.754;10.110;2022-10-17T10:44:14;6.49;87.80
65291;SHT30;51893;59.754;10.110;2022-10-17T10:47:05;6.52;87.85
65291;SHT30;51893;59.754;10.110;2022-10-17T10:49:49;6.59;87.83
65291;SHT30;51893;59.754;10.110;2022-10-17T10:52:41;6.62;87.77
65291;SHT30;51893;59.754;10.110;2022-10-17T10:55:28;6.64;87.70
65291;SHT30;51893;59.754;10.110;2022-10-17T10:58:31;6.66;87.61
65291;SHT30;51893;59.754;10.110;2022-10-17T11:07:34;6.84;87.27
65291;SHT30;51893;59.754;10.110;2022-10-17T11:10:15;6.82;87.09
65291;SHT30;51893;59.754;10.110;2022-10-17T11:13:19;6.77;87.16
65291;SHT30;51893;59.754;10.110;2022-10-17T11:21:59;6.73;87.70
65291;SHT30;51893;59.754;10.110;2022-10-17T11:24:41;6.68;87.87
65291;SHT30;51893;59.754;10.110;2022-10-17T11:27:21;6.70;87.90
65291;SHT30;51893;59.754;10.110;2022-10-17T11:29:55;6.84;87.60
65291;SHT30;51893;59.754;10.110;2022-10-17T11:35:24;7.01;87.21
65291;SHT30;51893;59.754;10.110;2022-10-17T11:41:10;7.17;87.54
65291;SHT30;51893;59.754;10.110;2022-10-17T11:43:48;7.25;87.53
65291;SHT30;51893;59.754;10.110;2022-10-17T11:46:25;7.29;87.61
65291;SHT30;51893;59.754;10.110;2022-10-17T11:51:48;7.24;87.64
65291;SHT30;51893;59.754;10.110;2022-10-17T11:54:39;7.25;87.70
65291;SHT30;51893;59.754;10.110;2022-10-17T11:59:56;7.32;87.50
65291;SHT30;51893;59.754;10.110;2022-10-17T12:12:30;7.62;87.31
65291;SHT30;51893;59.754;10.110;2022-10-17T12:17:43;7.71;87.20
65291;SHT30;51893;59.754;10.110;2022-10-17T12:22:52;7.70;87.31
65291;SHT30;51893;59.754;10.110;2022-10-17T12:25:27;7.72;87.47
65291;SHT30;51893;59.754;10.110;2022-10-17T12:30:35;7.74;87.31
65291;SHT30;51893;59.754;10.110;2022-10-17T12:33:18;7.78;87.32
65291;SHT30;51893;59.754;10.110;2022-10-17T12:46:49;7.82;87.58
65291;SHT30;51893;59.754;10.110;2022-10-17T12:49:54;7.87;87.48
65291;SHT30;51893;59.754;10.110;2022-10-17T12:55:08;7.91;87.49
65291;SHT30;51893;59.754;10.110;2022-10-17T13:03:05;7.81;87.51
65291;SHT30;51893;59.754;10.110;2022-10-17T13:05:46;7.85;87.64
65291;SHT30;51893;59.754;10.110;2022-10-17T13:08:24;7.89;87.77
65291;SHT30;51893;59.754;10.110;2022-10-17T13:11:05;7.91;87.84
65291;SHT30;51893;59.754;10.110;2022-10-17T13:13:37;7.90;88.01
65291;SHT30;51893;59.754;10.110;2022-10-17T13:16:37;7.89;88.06
65291;SHT30;51893;59.754;10.110;2022-10-17T13:19:12;7.94;87.96
65291;SHT30;51893;59.754;10.110;2022-10-17T13:21:56;7.98;87.85
65291;SHT30;51893;59.754;10.110;2022-10-17T13:24:34;8.03;87.64
65291;SHT30;51893;59.754;10.110;2022-10-17T13:27:19;8.01;87.51
65291;SHT30;51893;59.754;10.110;2022-10-17T13:30:02;8.03;87.46
65291;SHT30;51893;59.754;10.110;2022-10-17T13:33:00;8.04;87.61
65291;SHT30;51893;59.754;10.110;2022-10-17T13:35:34;8.08;87.76
65291;SHT30;51893;59.754;10.110;2022-10-17T13:38:26;8.10;87.90
65291;SHT30;51893;59.754;10.110;2022-10-17T13:41:04;8.11;87.91
65291;SHT30;51893;59.754;10.110;2022-10-17T13:44:00;8.14;87.80
65291;SHT30;51893;59.754;10.110;2022-10-17T13:46:38;8.22;87.79
65291;SHT30;51893;59.754;10.110;2022-10-17T13:52:18;8.26;87.80
65291;SHT30;51893;59.754;10.110;2022-10-17T13:54:51;8.24;87.77
65291;SHT30;51893;59.754;10.110;2022-10-17T13:57:25;8.27;87.81
65291;SHT30;51893;59.754;10.110;2022-10-17T14:00:06;8.26;87.78
65291;SHT30;51893;59.754;10.110;2022-10-17T14:02:47;8.23;87.93
65291;SHT30;51893;59.754;10.110;2022-10-17T14:05:21;8.22;88.03
65291;SHT30;51893;59.754;10.110;2022-10-17T14:08:00;8.27;88.10
65291;SHT30;51893;59.754;10.110;2022-10-17T14:10:40;8.29;88.20
65291;SHT30;51893;59.754;10.110;2022-10-17T14:13:29;8.35;88.19
65291;SHT30;51893;59.754;10.110;2022-10-17T14:16:04;8.41;87.96
65291;SHT30;51893;59.754;10.110;2022-10-17T14:18:35;8.40;87.84
65291;SHT30;51893;59.754;10.110;2022-10-17T14:21:06;8.39;87.69
65291;SHT30;51893;59.754;10.110;2022-10-17T14:27:01;8.36;87.30
65291;SHT30;51893;59.754;10.110;2022-10-17T14:29:48;8.35;87.42
65291;SHT30;51893;59.754;10.110;2022-10-17T14:32:21;8.39;87.49
65291;SHT30;51893;59.754;10.110;2022-10-17T14:34:53;8.44;87.47
65291;SHT30;51893;59.754;10.110;2022-10-17T14:37:45;8.47;87.35
65291;SHT30;51893;59.754;10.110;2022-10-17T14:40:24;8.55;87.31
65291;SHT30;51893;59.754;10.110;2022-10-17T14:42:56;8.55;87.29
65291;SHT30;51893;59.754;10.110;2022-10-17T14:45:33;8.58;87.17
65291;SHT30;51893;59.754;10.110;2022-10-17T14:54:01;8.64;86.70
65291;SHT30;51893;59.754;10.110;2022-10-17T14:56:51;8.71;86.70
65291;SHT30;51893;59.754;10.110;2022-10-17T14:59:21;8.75;86.63
65291;SHT30;51893;59.754;10.110;2022-10-17T15:02:11;8.70;86.60
65291;SHT30;51893;59.754;10.110;2022-10-17T15:04:40;8.69;86.63
65291;SHT30;51893;59.754;10.110;2022-10-17T15:07:11;8.62;86.65
65291;SHT30;51893;59.754;10.110;2022-10-17T15:09:44;8.54;86.74
65291;SHT30;51893;59.754;10.110;2022-10-17T15:12:19;8.46;86.91
65291;SHT30;51893;59.754;10.110;2022-10-17T15:14:52;8.42;87.00
65291;SHT30;51893;59.754;10.110;2022-10-17T15:17:22;8.42;87.03
65291;SHT30;51893;59.754;10.110;2022-10-17T15:19:53;8.40;87.07
65291;SHT30;51893;59.754;10.110;2022-10-17T15:22:26;8.43;87.16
65291;SHT30;51893;59.754;10.110;2022-10-17T15:24:54;8.41;87.03
65291;SHT30;51893;59.754;10.110;2022-10-17T15:27:23;8.38;87.04
65291;SHT30;51893;59.754;10.110;2022-10-17T15:29:53;8.33;87.08
65291;SHT30;51893;59.754;10.110;2022-10-17T15:32:20;8.33;87.20
65291;SHT30;51893;59.754;10.110;2022-10-17T15:34:49;8.31;87.14
65291;SHT30;51893;59.754;10.110;2022-10-17T15:37:20;8.28;87.10
65291;SHT30;51893;59.754;10.110;2022-10-17T15:39:53;8.27;87.13
65291;SHT30;51893;59.754;10.110;2022-10-17T15:42:27;8.30;87.22
65291;SHT30;51893;59.754;10.110;2022-10-17T15:44:56;8.34;87.21
65291;SHT30;51893;59.754;10.110;2022-10-17T15:47:29;8.32;87.11
65291;SHT30;51893;59.754;10.110;2022-10-17T15:50:01;8.28;87.10
65291;SHT30;51893;59.754;10.110;2022-10-17T15:52:31;8.25;87.07
65291;SHT30;51893;59.754;10.110;2022-10-17T15:55:00;8.21;87.05
65291;SHT30;51893;59.754;10.110;2022-10-17T15:57:32;8.16;87.02
65291;SHT30;51893;59.754;10.110;2022-10-17T16:00:14;8.12;87.12
65291;SHT30;51893;59.754;10.110;2022-10-17T16:02:47;8.08;87.20
65291;SHT30;51893;59.754;10.110;2022-10-17T16:05:24;8.03;87.25
65291;SHT30;51893;59.754;10.110;2022-10-17T16:07:52;8.00;87.31
65291;SHT30;51893;59.754;10.110;2022-10-17T16:10:23;8.01;87.39
65291;SHT30;51893;59.754;10.110;2022-10-17T16:12:54;8.01;87.43
65291;SHT30;51893;59.754;10.110;2022-10-17T16:15:24;8.00;87.50
65291;SHT30;51893;59.754;10.110;2022-10-17T16:17:57;8.01;87.60
65291;SHT30;51893;59.754;10.110;2022-10-17T16:20:32;8.10;87.56
65291;SHT30;51893;59.754;10.110;2022-10-17T16:23:00;8.09;87.57
65291;SHT30;51893;59.754;10.110;2022-10-17T16:25:31;8.09;87.60
65291;SHT30;51893;59.754;10.110;2022-10-17T16:28:00;8.05;87.73
65291;SHT30;51893;59.754;10.110;2022-10-17T16:30:28;8.01;87.86
65291;SHT30;51893;59.754;10.110;2022-10-17T16:32:59;7.99;87.90
65291;SHT30;51893;59.754;10.110;2022-10-17T16:35:28;7.96;87.98
65291;SHT30;51893;59.754;10.110;2022-10-17T16:38:05;7.92;88.09
65291;SHT30;51893;59.754;10.110;2022-10-17T16:40:36;7.91;88.12
65291;SHT30;51893;59.754;10.110;2022-10-17T16:43:09;7.91;88.21
65291;SHT30;51893;59.754;10.110;2022-10-17T16:45:40;7.90;88.20
65291;SHT30;51893;59.754;10.110;2022-10-17T16:48:09;7.94;88.17
65291;SHT30;51893;59.754;10.110;2022-10-17T16:50:38;8.00;88.10
65291;SHT30;51893;59.754;10.110;2022-10-17T16:53:07;8.07;88.03
65291;SHT30;51893;59.754;10.110;2022-10-17T16:55:35;8.10;87.94
65291;SHT30;51893;59.754;10.110;2022-10-17T16:58:08;8.08;87.85
65291;SHT30;51893;59.754;10.110;2022-10-17T17:00:38;8.03;88.02
65291;SHT30;51893;59.754;10.110;2022-10-17T17:03:07;8.04;88.09
65291;SHT30;51893;59.754;10.110;2022-10-17T17:05:40;8.02;88.14
65291;SHT30;51893;59.754;10.110;2022-10-17T17:08:08;7.98;88.20
65291;SHT30;51893;59.754;10.110;2022-10-17T17:10:42;8.01;88.24
65291;SHT30;51893;59.754;10.110;2022-10-17T17:13:17;8.07;88.20
65291;SHT30;51893;59.754;10.110;2022-10-17T17:15:49;8.13;88.13
65291;SHT30;51893;59.754;10.110;2022-10-17T17:18:23;8.07;88.11
65291;SHT30;51893;59.754;10.110;2022-10-17T17:20:56;8.06;88.18
65291;SHT30;51893;59.754;10.110;2022-10-17T17:23:32;8.10;88.21
65291;SHT30;51893;59.754;10.110;2022-10-17T17:26:03;8.13;88.15
65291;SHT30;51893;59.754;10.110;2022-10-17T17:28:47;8.11;88.14
65291;SHT30;51893;59.754;10.110;2022-10-17T17:31:17;8.14;88.13
65291;SHT30;51893;59.754;10.110;2022-10-17T17:33:49;8.21;88.09
65291;SHT30;51893;59.754;10.110;2022-10-17T17:36:24;8.26;87.90
65291;SHT30;51893;59.754;10.110;2022-10-17T17:38:55;8.20;87.83
65291;SHT30;51893;59.754;10.110;2022-10-17T17:41:26;8.21;87.86
65291;SHT30;51893;59.754;10.110;2022-10-17T17:43:56;8.19;87.82
65291;SHT30;51893;59.754;10.110;2022-10-17T17:46:24;8.17;87.91
65291;SHT30;51893;59.754;10.110;2022-10-17T17:48:53;8.18;88.00
65291;SHT30;51893;59.754;10.110;2022-10-17T17:51:23;8.19;88.00
65291;SHT30;51893;59.754;10.110;2022-10-17T17:53:55;8.23;88.01
65291;SHT30;51893;59.754;10.110;2022-10-17T17:56:25;8.27;87.98
65291;SHT30;51893;59.754;10.110;2022-10-17T17:58:58;8.25;87.99
65291;SHT30;51893;59.754;10.110;2022-10-17T18:01:29;8.23;88.00
65291;SHT30;51893;59.754;10.110;2022-10-17T18:04:05;8.25;88.01
65291;SHT30;51893;59.754;10.110;2022-10-17T18:06:35;8.26;88.00
65291;SHT30;51893;59.754;10.110;2022-10-17T18:09:07;8.32;87.99
65291;SHT30;51893;59.754;10.110;2022-10-17T18:11:36;8.35;87.82
65291;SHT30;51893;59.754;10.110;2022-10-17T18:14:07;8.34;87.84
65291;SHT30;51893;59.754;10.110;2022-10-17T18:16:41;8.41;87.79
65291;SHT30;51893;59.754;10.110;2022-10-17T18:19:10;8.41;87.64
65291;SHT30;51893;59.754;10.110;2022-10-17T18:21:38;8.34;87.65